createdAt,value
2022-11-14T00:01:27.100Z,71.18
2022-11-14T00:03:53.534Z,69.72
2022-11-14T00:06:20.345Z,73.07
2022-11-14T00:08:46.789Z,70.64
2022-11-14T00:11:13.375Z,70.97
2022-11-14T00:13:39.847Z,70.58
2022-11-14T00:16:06.524Z,71.09
2022-11-14T00:18:33.208Z,70.14
2022-11-14T00:20:59.757Z,71.50
2022-11-14T00:23:26.406Z,72.15
2022-11-14T00:25:52.875Z,70.98
2022-11-14T00:28:19.578Z,72.92
2022-11-14T00:30:48.479Z,70.93
2022-11-14T00:33:20.038Z,70.25
2022-11-14T00:35:53.078Z,71.50
2022-11-14T00:38:19.826Z,71.07
2022-11-14T00:40:46.520Z,70.51
2022-11-14T00:43:13.189Z,70.67
2022-11-14T00:45:39.747Z,70.63
2022-11-14T00:48:06.352Z,71.48
2022-11-14T00:50:32.957Z,73.30
2022-11-14T00:52:59.437Z,73.23
2022-11-14T00:55:25.967Z,71.60
2022-11-14T00:57:52.466Z,71.88
2022-11-14T01:00:19.239Z,71.94
2022-11-14T01:02:45.830Z,72.13
2022-11-14T01:05:12.369Z,73.92
2022-11-14T01:07:39.130Z,74.31
2022-11-14T01:10:06.684Z,72.62
2022-11-14T01:12:34.509Z,72.71
2022-11-14T01:15:01.098Z,74.33
2022-11-14T01:17:28.715Z,73.32
2022-11-14T01:19:55.202Z,73.87
2022-11-14T01:22:21.717Z,73.82
2022-11-14T01:24:48.189Z,75.60
2022-11-14T01:27:14.837Z,74.21
2022-11-14T01:29:41.576Z,75.56
2022-11-14T01:32:08.036Z,73.79
2022-11-14T01:34:34.551Z,73.94
2022-11-14T01:37:01.042Z,76.28
2022-11-14T01:39:27.644Z,75.34
2022-11-14T01:41:54.335Z,77.51
2022-11-14T01:44:45.494Z,75.38
2022-11-14T01:47:14.290Z,75.53
2022-11-14T01:49:45.504Z,76.56
2022-11-14T01:52:20.652Z,76.42
2022-11-14T01:54:51.265Z,74.38
2022-11-14T01:57:24.039Z,74.84
2022-11-14T01:59:54.580Z,73.90
2022-11-14T02:02:23.706Z,74.03
2022-11-14T02:04:55.803Z,76.11
2022-11-14T02:07:24.721Z,74.66
2022-11-14T02:09:51.906Z,74.90
2022-11-14T02:12:20.123Z,74.36
2022-11-14T02:14:50.111Z,73.66
2022-11-14T02:17:34.024Z,74.91
2022-11-14T02:20:05.354Z,75.74
2022-11-14T02:22:32.466Z,74.48
2022-11-14T02:24:58.990Z,74.17
2022-11-14T02:27:25.552Z,74.95
2022-11-14T02:29:52.070Z,75.16
2022-11-14T02:32:19.028Z,74.52
2022-11-14T02:34:45.523Z,74.84
2022-11-14T02:37:12.007Z,75.18
2022-11-14T02:39:39.058Z,75.03
2022-11-14T02:42:05.660Z,74.36
2022-11-14T02:44:32.205Z,74.27
2022-11-14T02:46:58.815Z,75.01
2022-11-14T02:49:25.313Z,75.59
2022-11-14T02:51:51.944Z,75.30
2022-11-14T02:54:18.411Z,75.23
2022-11-14T02:56:44.880Z,75.30
2022-11-14T02:59:11.320Z,76.51
2022-11-14T03:01:37.849Z,75.78
2022-11-14T03:04:04.584Z,75.75
2022-11-14T03:06:31.202Z,74.73
2022-11-14T03:08:57.951Z,77.54
2022-11-14T03:11:24.429Z,76.44
2022-11-14T03:13:50.973Z,75.66
2022-11-14T03:16:17.586Z,75.58
2022-11-14T03:18:44.052Z,75.64
2022-11-14T03:21:17.934Z,74.93
2022-11-14T03:23:44.566Z,76.23
2022-11-14T03:26:12.606Z,76.45
2022-11-14T03:28:39.429Z,75.78
2022-11-14T03:31:06.913Z,75.42
2022-11-14T03:33:34.127Z,76.13
2022-11-14T03:36:01.039Z,75.71
2022-11-14T03:38:28.218Z,75.59
2022-11-14T03:40:54.911Z,75.78
2022-11-14T03:43:21.955Z,76.10
2022-11-14T03:45:48.867Z,75.66
2022-11-14T03:48:15.728Z,75.78
2022-11-14T03:50:43.446Z,78.09
2022-11-14T03:53:11.353Z,77.21
2022-11-14T03:55:38.965Z,76.86
2022-11-14T03:58:05.774Z,76.57
2022-11-14T04:00:32.388Z,76.06
2022-11-14T04:02:58.952Z,75.42
2022-11-14T04:05:25.548Z,75.78
2022-11-14T04:07:52.358Z,75.99
2022-11-14T04:10:19.187Z,75.65
2022-11-14T04:12:50.510Z,76.37
2022-11-14T04:15:18.094Z,75.60
2022-11-14T04:17:45.560Z,77.18
2022-11-14T04:20:13.534Z,76.94
2022-11-14T04:22:40.467Z,77.79
2022-11-14T04:25:08.631Z,76.58
2022-11-14T04:27:35.177Z,75.78
2022-11-14T04:30:02.088Z,77.96
2022-11-14T04:32:28.735Z,77.38
2022-11-14T04:34:55.304Z,78.13
2022-11-14T04:37:21.838Z,76.80
2022-11-14T04:39:48.351Z,78.46
2022-11-14T04:42:14.886Z,78.31
2022-11-14T04:44:41.465Z,77.75
2022-11-14T04:49:54.545Z,77.70
2022-11-14T04:52:21.052Z,77.97
2022-11-14T04:54:47.543Z,77.04
2022-11-14T04:57:14.210Z,77.74
2022-11-14T04:59:40.819Z,77.79
2022-11-14T05:02:07.479Z,76.64
2022-11-14T05:04:33.996Z,77.34
2022-11-14T05:07:00.533Z,77.48
2022-11-14T05:09:27.266Z,77.57
2022-11-14T05:11:53.861Z,77.36
2022-11-14T05:14:20.421Z,77.79
2022-11-14T05:16:47.089Z,77.00
2022-11-14T05:19:13.583Z,78.22
2022-11-14T05:21:40.491Z,77.86
2022-11-14T05:24:07.107Z,76.85
2022-11-14T05:26:33.762Z,77.58
2022-11-14T05:29:00.410Z,77.00
2022-11-14T05:31:26.870Z,76.67
2022-11-14T05:33:53.489Z,77.04
2022-11-14T05:36:20.170Z,78.13
2022-11-14T05:38:46.719Z,78.17
2022-11-14T05:41:16.202Z,78.70
2022-11-14T05:43:44.038Z,77.33
2022-11-14T05:46:13.925Z,77.60
2022-11-14T05:48:41.137Z,77.77
2022-11-14T05:51:10.221Z,78.77
2022-11-14T05:53:36.988Z,79.18
2022-11-14T05:56:07.997Z,78.44
2022-11-14T05:58:35.381Z,77.68
2022-11-14T06:01:05.096Z,78.30
2022-11-14T06:03:33.901Z,78.15
2022-11-14T06:06:02.301Z,78.68
2022-11-14T06:08:30.524Z,78.49
2022-11-14T06:11:01.312Z,78.69
2022-11-14T06:13:27.976Z,78.95
2022-11-14T06:15:59.776Z,78.49
2022-11-14T06:18:26.773Z,78.32
2022-11-14T06:20:53.419Z,78.67
2022-11-14T06:23:24.606Z,78.12
2022-11-14T06:25:51.423Z,77.83
2022-11-14T06:28:17.838Z,78.31
2022-11-14T06:30:44.442Z,77.66
2022-11-14T06:33:10.927Z,78.12
2022-11-14T06:35:37.664Z,78.42
2022-11-14T06:38:04.071Z,78.13
2022-11-14T06:40:30.532Z,79.26
2022-11-14T06:42:56.971Z,78.98
2022-11-14T06:45:23.549Z,77.76
2022-11-14T06:47:52.335Z,78.77
2022-11-14T06:50:18.851Z,78.09
2022-11-14T06:52:45.432Z,78.56
2022-11-14T06:55:12.180Z,78.78
2022-11-14T06:57:38.649Z,78.82
2022-11-14T07:00:05.745Z,78.98
2022-11-14T07:02:32.240Z,78.69
2022-11-14T07:04:58.744Z,78.16
2022-11-14T07:07:25.399Z,78.95
2022-11-14T07:09:54.342Z,77.85
2022-11-14T07:12:20.851Z,79.76
2022-11-14T07:14:47.347Z,78.99
2022-11-14T07:17:14.525Z,79.88
2022-11-14T07:19:41.010Z,79.18
2022-11-14T07:22:07.508Z,79.05
2022-11-14T07:24:34.138Z,77.67
2022-11-14T07:27:02.263Z,79.35
2022-11-14T07:29:29.293Z,79.23
2022-11-14T07:31:55.778Z,78.93
2022-11-14T07:34:22.424Z,78.97
2022-11-14T07:36:50.627Z,79.66
2022-11-14T07:39:17.437Z,81.14
2022-11-14T07:41:43.966Z,81.33
2022-11-14T07:44:10.412Z,80.65
2022-11-14T07:46:36.992Z,81.53
2022-11-14T07:49:03.492Z,82.02
2022-11-14T07:51:30.164Z,81.87
2022-11-14T07:53:56.708Z,82.45
2022-11-14T07:56:23.360Z,82.84
2022-11-14T07:58:49.845Z,83.25
2022-11-14T08:01:16.381Z,83.27
2022-11-14T08:03:45.983Z,83.24
2022-11-14T08:06:15.312Z,83.52
2022-11-14T08:08:42.398Z,83.89
2022-11-14T08:11:09.153Z,84.16
2022-11-14T08:13:35.682Z,84.25
2022-11-14T08:16:13.468Z,83.10
2022-11-14T08:18:41.500Z,83.64
2022-11-14T08:21:08.330Z,83.21
2022-11-14T08:23:34.900Z,83.28
2022-11-14T08:26:01.587Z,83.35
2022-11-14T08:28:29.279Z,84.09
2022-11-14T08:31:03.440Z,83.63
2022-11-14T08:33:30.925Z,84.22
2022-11-14T08:36:03.889Z,83.84
2022-11-14T08:38:34.342Z,83.84
2022-11-14T08:41:01.810Z,84.87
2022-11-14T08:43:28.607Z,83.25
2022-11-14T08:46:01.940Z,84.33
2022-11-14T08:48:29.347Z,83.46
2022-11-14T08:50:56.281Z,83.71
2022-11-14T08:53:23.312Z,83.68
2022-11-14T08:55:49.841Z,83.23
2022-11-14T08:58:16.394Z,83.67
2022-11-14T09:00:42.935Z,83.41
2022-11-14T09:03:11.925Z,83.16
2022-11-14T09:05:38.555Z,82.68
2022-11-14T09:08:05.264Z,84.43
2022-11-14T09:10:32.193Z,82.93
2022-11-14T09:13:00.289Z,82.87
2022-11-14T09:15:29.308Z,82.77
2022-11-14T09:17:57.254Z,82.67
2022-11-14T09:20:30.140Z,82.65
2022-11-14T09:23:02.215Z,81.77
2022-11-14T09:25:30.143Z,82.03
2022-11-14T09:27:57.123Z,81.79
2022-11-14T09:30:23.920Z,82.71
2022-11-14T09:32:50.852Z,82.40
2022-11-14T09:35:17.441Z,82.63
2022-11-14T09:37:44.232Z,82.68
2022-11-14T09:40:13.908Z,82.09
2022-11-14T09:43:13.365Z,83.11
2022-11-14T09:45:44.703Z,82.13
2022-11-14T09:48:23.999Z,83.48
2022-11-14T09:51:18.143Z,82.46
2022-11-14T09:54:11.276Z,82.52
2022-11-14T09:56:37.862Z,83.55
2022-11-14T09:59:09.451Z,81.69
2022-11-14T10:01:49.768Z,82.39
2022-11-14T10:04:44.533Z,82.57
2022-11-14T10:07:33.442Z,82.46
2022-11-14T10:10:38.894Z,81.49
2022-11-14T10:13:44.921Z,81.25
2022-11-14T10:16:19.464Z,81.89
2022-11-14T10:19:10.937Z,82.17
2022-11-14T10:22:02.447Z,81.55
2022-11-14T10:25:00.883Z,80.47
2022-11-14T10:27:36.203Z,80.79
2022-11-14T10:30:17.295Z,81.46
2022-11-14T10:32:52.472Z,80.54
2022-11-14T10:35:23.690Z,80.18
2022-11-14T10:38:24.289Z,81.88
2022-11-14T10:40:54.195Z,81.12
2022-11-14T10:43:36.104Z,80.14
2022-11-14T10:46:13.198Z,80.37
2022-11-14T10:48:47.120Z,80.59
2022-11-14T10:51:44.325Z,80.92
2022-11-14T10:54:34.959Z,80.95
2022-11-14T10:57:01.530Z,80.10
2022-11-14T10:59:29.020Z,80.44
2022-11-14T11:01:58.088Z,78.59
2022-11-14T11:04:34.460Z,78.66
2022-11-14T11:07:06.686Z,77.21
2022-11-14T11:10:01.319Z,80.62
2022-11-14T11:12:39.910Z,78.79
2022-11-14T11:15:22.231Z,76.16
2022-11-14T11:18:02.773Z,77.93
2022-11-14T11:20:41.074Z,78.66
2022-11-14T11:23:30.799Z,76.86
2022-11-14T11:26:09.042Z,78.85
2022-11-14T11:28:37.188Z,78.50
2022-11-14T11:31:07.017Z,78.76
2022-11-14T11:33:35.720Z,78.64
2022-11-14T11:36:15.717Z,77.66
2022-11-14T11:38:42.444Z,75.55
2022-11-14T11:41:27.393Z,77.80
2022-11-14T11:44:07.304Z,78.13
2022-11-14T11:46:46.656Z,77.57
2022-11-14T11:49:29.540Z,76.29
2022-11-14T11:52:01.596Z,77.93
2022-11-14T11:54:35.801Z,77.90
2022-11-14T11:57:10.034Z,77.54
2022-11-14T11:59:43.140Z,76.51
2022-11-14T12:02:24.707Z,76.66
2022-11-14T12:04:53.239Z,76.98
2022-11-14T12:07:23.907Z,75.28
2022-11-14T12:12:59.596Z,77.56
2022-11-14T12:15:48.772Z,76.21
2022-11-14T12:18:46.763Z,76.94
2022-11-14T12:21:23.368Z,75.33
2022-11-14T12:24:15.262Z,75.18
2022-11-14T12:27:15.689Z,75.73
2022-11-14T12:30:11.086Z,76.20
2022-11-14T12:32:45.533Z,77.08
2022-11-14T12:35:25.038Z,76.87
2022-11-14T12:37:57.042Z,76.25
2022-11-14T12:40:54.293Z,76.14
2022-11-14T12:43:36.913Z,75.21
2022-11-14T12:46:08.761Z,76.80
2022-11-14T12:48:38.660Z,76.10
2022-11-14T12:51:27.566Z,76.34
2022-11-14T12:53:55.492Z,76.47
2022-11-14T12:56:30.798Z,75.95
2022-11-14T12:59:28.985Z,76.26
2022-11-14T13:02:23.419Z,75.91
2022-11-14T13:05:19.621Z,74.20
2022-11-14T13:08:22.242Z,75.50
2022-11-14T13:10:48.869Z,74.86
2022-11-14T13:13:35.518Z,74.58
2022-11-14T13:16:40.125Z,75.61
2022-11-14T13:19:40.456Z,74.92
2022-11-14T13:22:42.218Z,73.94
2022-11-14T13:25:32.080Z,74.41
2022-11-14T13:28:37.897Z,74.77
2022-11-14T13:31:19.013Z,75.46
2022-11-14T13:33:53.668Z,74.25
2022-11-14T13:37:02.533Z,74.22
2022-11-14T13:39:57.636Z,74.37
2022-11-14T13:42:59.395Z,74.36
2022-11-14T13:45:50.952Z,75.13
2022-11-14T13:48:24.569Z,74.14
2022-11-14T13:51:10.247Z,74.81
2022-11-14T13:53:48.555Z,74.15
2022-11-14T13:56:53.070Z,74.00
2022-11-14T13:59:37.524Z,73.68
2022-11-14T14:02:24.622Z,73.71
2022-11-14T14:05:21.497Z,74.91
2022-11-14T14:08:18.433Z,72.75
2022-11-14T14:11:31.231Z,73.29
2022-11-14T14:14:16.176Z,73.53
2022-11-14T14:16:52.786Z,73.46
2022-11-14T14:19:47.877Z,74.34
2022-11-14T14:22:17.946Z,74.32
2022-11-14T14:25:11.018Z,73.84
2022-11-14T14:27:46.586Z,74.34
2022-11-14T14:30:18.573Z,74.14
2022-11-14T14:33:10.148Z,73.77
2022-11-14T14:35:40.915Z,73.68
2022-11-14T14:38:23.712Z,74.37
2022-11-14T14:40:50.843Z,74.48
2022-11-14T14:43:32.175Z,74.18
2022-11-14T14:45:59.359Z,74.02
2022-11-14T14:48:29.013Z,74.09
2022-11-14T14:51:00.518Z,74.16
2022-11-14T14:53:35.414Z,74.47
2022-11-14T14:56:16.882Z,74.43
2022-11-14T14:58:43.424Z,73.98
2022-11-14T15:01:20.844Z,74.14
2022-11-14T15:03:56.709Z,74.68
2022-11-14T15:06:33.642Z,74.06
2022-11-14T15:09:08.322Z,74.59
2022-11-14T15:11:36.470Z,74.17
2022-11-14T15:14:46.478Z,74.41
2022-11-14T15:17:13.184Z,74.04
2022-11-14T15:19:45.819Z,74.62
2022-11-14T15:22:15.577Z,73.96
2022-11-14T15:24:42.464Z,74.23
2022-11-14T15:27:14.445Z,74.33
2022-11-14T15:29:57.429Z,73.76
2022-11-14T15:32:25.669Z,74.60
2022-11-14T15:35:25.713Z,74.25
2022-11-14T15:38:42.101Z,73.94
2022-11-14T15:41:18.600Z,74.05
2022-11-14T15:43:50.379Z,74.52
2022-11-14T15:46:38.192Z,74.19
2022-11-14T15:49:20.771Z,73.78
2022-11-14T15:51:50.646Z,73.95
2022-11-14T15:57:13.844Z,74.39
2022-11-14T15:59:40.550Z,74.39
2022-11-14T16:02:17.357Z,73.86
2022-11-14T16:04:47.743Z,74.21
2022-11-14T16:07:16.957Z,73.83
2022-11-14T16:09:43.639Z,73.80
2022-11-14T16:12:10.608Z,74.26
2022-11-14T16:14:37.381Z,74.19
2022-11-14T16:17:04.411Z,74.19
2022-11-14T16:19:31.297Z,74.46
2022-11-14T16:22:03.003Z,74.63
2022-11-14T16:24:33.834Z,74.56
2022-11-14T16:27:01.073Z,74.41
2022-11-14T16:29:27.664Z,74.55
2022-11-14T16:31:55.328Z,74.05
2022-11-14T16:34:24.779Z,74.41
2022-11-14T16:36:59.711Z,74.41
2022-11-14T16:39:27.698Z,74.50
2022-11-14T16:42:00.362Z,74.19
2022-11-14T16:44:27.443Z,74.22
2022-11-14T16:46:54.156Z,74.43
2022-11-14T16:49:21.457Z,74.63
2022-11-14T16:51:50.612Z,74.77
2022-11-14T16:54:20.625Z,75.14
2022-11-14T16:56:48.053Z,74.57
2022-11-14T16:59:14.718Z,75.03
2022-11-14T17:01:41.814Z,75.03
2022-11-14T17:04:08.498Z,74.82
2022-11-14T17:06:35.210Z,74.91
2022-11-14T17:09:02.029Z,75.19
2022-11-14T17:11:28.781Z,75.61
2022-11-14T17:13:56.551Z,75.37
2022-11-14T17:16:23.482Z,75.47
2022-11-14T17:18:54.243Z,75.00
2022-11-14T17:21:22.064Z,75.24
2022-11-14T17:23:54.855Z,75.75
2022-11-14T17:26:21.750Z,75.69
2022-11-14T17:28:48.423Z,75.87
2022-11-14T17:31:19.057Z,75.53
2022-11-14T17:33:54.297Z,75.63
2022-11-14T17:36:21.855Z,75.33
2022-11-14T17:38:48.452Z,75.39
2022-11-14T17:41:15.055Z,75.74
2022-11-14T17:43:41.951Z,75.28
2022-11-14T17:46:15.622Z,76.03
2022-11-14T17:48:44.145Z,76.00
2022-11-14T17:51:13.133Z,75.90
2022-11-14T17:53:43.648Z,76.18
2022-11-14T17:56:15.241Z,76.37
2022-11-14T17:58:42.482Z,75.82
2022-11-14T18:01:19.149Z,76.16
2022-11-14T18:03:48.161Z,76.40
2022-11-14T18:06:19.100Z,76.20
2022-11-14T18:08:46.433Z,76.47
2022-11-14T18:11:15.039Z,76.28
2022-11-14T18:13:42.179Z,76.04
2022-11-14T18:16:15.095Z,76.29
2022-11-14T18:18:41.733Z,76.42
2022-11-14T18:21:14.815Z,76.70
2022-11-14T18:23:41.607Z,76.13
2022-11-14T18:26:12.586Z,76.58
2022-11-14T18:28:39.450Z,76.21
2022-11-14T18:31:10.141Z,76.47
2022-11-14T18:33:38.206Z,76.34
2022-11-14T18:36:08.401Z,76.43
2022-11-14T18:38:35.174Z,76.71
2022-11-14T18:41:03.499Z,76.81
2022-11-14T18:43:32.658Z,76.63
2022-11-14T18:46:05.881Z,76.98
2022-11-14T18:48:32.783Z,77.18
2022-11-14T18:51:04.375Z,77.21
2022-11-14T18:53:33.048Z,76.91
2022-11-14T18:56:05.785Z,76.61
2022-11-14T18:58:32.795Z,76.64
2022-11-14T19:01:07.462Z,76.63
2022-11-14T19:03:34.026Z,76.73
2022-11-14T19:06:04.683Z,76.64
2022-11-14T19:08:31.201Z,76.69
2022-11-14T19:11:06.416Z,76.71
2022-11-14T19:13:33.533Z,76.27
2022-11-14T19:16:05.098Z,76.67
2022-11-14T19:18:32.159Z,76.39
2022-11-14T19:21:00.855Z,76.42
2022-11-14T19:23:28.748Z,76.49
2022-11-14T19:26:00.848Z,76.46
2022-11-14T19:28:39.715Z,76.30
2022-11-14T19:31:07.780Z,76.51
2022-11-14T19:33:35.281Z,76.11
2022-11-14T19:36:10.922Z,76.49
2022-11-14T19:38:37.512Z,76.36
2022-11-14T19:41:09.206Z,76.75
2022-11-14T19:43:38.052Z,76.45
2022-11-14T19:46:05.782Z,76.80
2022-11-14T19:48:32.659Z,76.47
2022-11-14T19:51:09.565Z,76.68
2022-11-14T19:53:37.614Z,76.75
2022-11-14T19:56:07.129Z,76.95
2022-11-14T19:58:36.967Z,76.79
2022-11-14T20:01:18.815Z,76.82
2022-11-14T20:03:50.683Z,76.94
2022-11-14T20:06:24.117Z,76.82
2022-11-14T20:08:51.147Z,77.06
2022-11-14T20:11:17.646Z,77.09
2022-11-14T20:13:44.351Z,77.17
2022-11-14T20:16:18.834Z,76.86
2022-11-14T20:18:57.435Z,76.78
2022-11-14T20:21:27.363Z,77.01
2022-11-14T20:23:54.260Z,77.12
2022-11-14T20:26:21.443Z,77.21
2022-11-14T20:28:51.929Z,77.29
2022-11-14T20:31:20.805Z,77.42
2022-11-14T20:33:48.891Z,77.21
2022-11-14T20:36:17.913Z,77.56
2022-11-14T20:38:44.806Z,77.39
2022-11-14T20:41:12.416Z,77.43
2022-11-14T20:43:39.511Z,77.52
2022-11-14T20:46:09.752Z,77.26
2022-11-14T20:48:36.216Z,77.72
2022-11-14T20:51:04.572Z,77.39
2022-11-14T20:53:32.301Z,77.38
2022-11-14T20:55:59.950Z,77.26
2022-11-14T20:58:27.896Z,77.11
2022-11-14T21:00:54.723Z,77.14
2022-11-14T21:03:21.957Z,77.07
2022-11-14T21:05:48.474Z,77.16
2022-11-14T21:08:16.858Z,76.46
2022-11-14T21:10:49.189Z,76.59
2022-11-14T21:13:39.685Z,76.50
2022-11-14T21:16:10.285Z,75.52
2022-11-14T21:18:39.423Z,75.78
2022-11-14T21:21:16.094Z,76.15
2022-11-14T21:23:44.052Z,75.03
2022-11-14T21:26:16.232Z,75.85
2022-11-14T21:28:45.324Z,75.99
2022-11-14T21:31:19.537Z,76.76
2022-11-14T21:33:48.446Z,76.08
2022-11-14T21:36:43.212Z,76.52
2022-11-14T21:39:04.858Z,78.94
2022-11-14T21:41:32.694Z,76.80
2022-11-14T21:44:01.234Z,79.11
2022-11-14T21:46:28.532Z,78.00
2022-11-14T21:48:56.494Z,75.77
2022-11-14T21:51:25.501Z,76.85
2022-11-14T21:53:58.933Z,77.00
2022-11-14T21:56:29.019Z,77.55
2022-11-14T21:59:12.764Z,77.33
2022-11-14T22:01:59.917Z,77.05
2022-11-14T22:04:26.782Z,78.92
2022-11-14T22:06:53.910Z,77.77
2022-11-14T22:09:20.788Z,77.38
2022-11-14T22:11:47.248Z,77.41
2022-11-14T22:14:13.924Z,77.01
2022-11-14T22:16:40.661Z,78.13
2022-11-14T22:19:07.166Z,77.08
2022-11-14T22:21:33.681Z,80.04
2022-11-14T22:24:00.235Z,78.71
2022-11-14T22:26:26.727Z,77.47
2022-11-14T22:28:53.223Z,75.85
2022-11-14T22:31:24.324Z,78.06
2022-11-14T22:33:53.201Z,77.13
2022-11-14T22:36:23.519Z,75.20
2022-11-14T22:38:52.398Z,75.95
2022-11-14T22:41:21.439Z,77.63
2022-11-14T22:43:48.883Z,76.62
2022-11-14T22:46:20.317Z,77.81
2022-11-14T22:48:48.379Z,75.92
2022-11-14T22:51:20.914Z,75.85
2022-11-14T22:53:50.343Z,75.64
2022-11-14T22:56:19.335Z,76.19
2022-11-14T22:58:46.540Z,81.42
2022-11-14T23:01:22.407Z,79.15
2022-11-14T23:03:53.770Z,79.00
2022-11-14T23:06:20.357Z,78.54
2022-11-14T23:08:47.031Z,77.80
2022-11-14T23:11:16.822Z,81.14
2022-11-14T23:13:46.186Z,82.20
2022-11-14T23:16:15.564Z,78.94
2022-11-14T23:18:42.331Z,78.71
2022-11-14T23:21:13.236Z,77.04
2022-11-14T23:23:39.863Z,80.22
2022-11-14T23:26:10.353Z,78.92
2022-11-14T23:28:36.982Z,78.62
2022-11-14T23:31:03.718Z,81.17
2022-11-14T23:33:31.022Z,79.63
2022-11-14T23:35:57.844Z,79.52
2022-11-14T23:38:24.717Z,78.11
2022-11-14T23:40:55.901Z,78.72
2022-11-14T23:43:22.439Z,78.21
2022-11-14T23:45:49.528Z,78.29
2022-11-14T23:48:17.319Z,79.68
2022-11-14T23:50:44.632Z,80.72
2022-11-14T23:53:11.906Z,79.10
2022-11-14T23:55:38.591Z,79.08
2022-11-14T23:58:05.172Z,79.49
